createdAt,value
2022-11-04T00:01:33.848Z,99641.47
2022-11-04T00:04:01.447Z,99634.78
2022-11-04T00:06:28.767Z,99626.50
2022-11-04T00:08:58.487Z,99621.25
2022-11-04T00:11:46.450Z,99613.25
2022-11-04T00:14:14.219Z,99609.44
2022-11-04T00:17:01.093Z,99605.63
2022-11-04T00:19:28.699Z,99617.63
2022-11-04T00:22:15.014Z,99600.78
2022-11-04T00:24:45.159Z,99593.47
2022-11-04T00:27:33.416Z,99586.97
2022-11-04T00:30:00.763Z,99580.94
2022-11-04T00:32:46.761Z,99583.25
2022-11-04T00:35:14.144Z,99590.16
2022-11-04T00:37:43.616Z,99587.22
2022-11-04T00:40:13.563Z,99582.78
2022-11-04T00:42:41.048Z,99573.41
2022-11-04T00:45:08.749Z,99576.25
2022-11-04T00:47:36.085Z,99569.63
2022-11-04T00:50:03.511Z,99565.19
2022-11-04T00:52:31.118Z,99554.22
2022-11-04T00:54:58.448Z,99558.91
2022-11-04T00:57:25.767Z,99557.72
2022-11-04T00:59:53.426Z,99562.50
2022-11-04T01:02:20.940Z,99558.37
2022-11-04T01:04:48.346Z,99563.84
2022-11-04T01:07:15.980Z,99567.06
2022-11-04T01:09:43.386Z,99559.13
2022-11-04T01:12:10.723Z,99562.09
2022-11-04T01:14:38.318Z,99566.31
2022-11-04T01:17:05.840Z,99560.28
2022-11-04T01:19:33.385Z,99555.78
2022-11-04T01:22:00.996Z,99543.69
2022-11-04T01:24:28.418Z,99545.63
2022-11-04T01:26:55.947Z,99538.91
2022-11-04T01:29:23.539Z,99534.13
2022-11-04T01:31:50.870Z,99533.22
2022-11-04T01:34:18.194Z,99540.06
2022-11-04T01:36:45.798Z,99530.56
2022-11-04T01:39:13.504Z,99535.16
2022-11-04T01:41:41.059Z,99534.31
2022-11-04T01:44:42.700Z,99516.88
2022-11-04T01:47:22.426Z,99499.06
2022-11-04T01:49:57.268Z,99495.19
2022-11-04T01:52:30.332Z,99494.44
2022-11-04T01:54:59.945Z,99492.31
2022-11-04T01:57:37.152Z,99490.50
2022-11-04T02:00:07.035Z,99491.13
2022-11-04T02:02:50.071Z,99477.31
2022-11-04T02:05:17.857Z,99476.19
2022-11-04T02:07:47.767Z,99470.88
2022-11-04T02:10:15.714Z,99476.56
2022-11-04T02:12:52.317Z,99473.47
2022-11-04T02:15:35.920Z,99471.66
2022-11-04T02:18:30.969Z,99460.22
2022-11-04T02:21:18.983Z,99459.34
2022-11-04T02:23:59.757Z,99451.03
2022-11-04T02:26:50.338Z,99444.37
2022-11-04T02:29:55.407Z,99434.25
2022-11-04T02:32:57.978Z,99436.09
2022-11-04T02:35:58.675Z,99440.06
2022-11-04T02:38:34.164Z,99426.22
2022-11-04T02:41:11.728Z,99416.66
2022-11-04T02:43:48.528Z,99408.25
2022-11-04T02:46:35.016Z,99415.34
2022-11-04T02:49:10.707Z,99420.78
2022-11-04T02:51:56.768Z,99414.97
2022-11-04T02:54:33.030Z,99426.69
2022-11-04T02:57:02.056Z,99432.25
2022-11-04T02:59:39.529Z,99432.47
2022-11-04T03:02:10.939Z,99435.13
2022-11-04T03:04:42.129Z,99421.91
2022-11-04T03:09:45.853Z,99406.44
2022-11-04T03:12:17.009Z,99406.97
2022-11-04T03:14:48.707Z,99387.09
2022-11-04T03:17:31.982Z,99392.53
2022-11-04T03:20:00.188Z,99376.16
2022-11-04T03:22:35.896Z,99367.56
2022-11-04T03:25:05.723Z,99365.91
2022-11-04T03:27:45.864Z,99362.94
2022-11-04T03:30:21.559Z,99347.94
2022-11-04T03:33:18.101Z,99357.06
2022-11-04T03:35:45.497Z,99349.12
2022-11-04T03:38:13.354Z,99345.28
2022-11-04T03:40:40.829Z,99349.66
2022-11-04T03:43:15.189Z,99362.16
2022-11-04T03:45:42.970Z,99360.53
2022-11-04T03:48:10.427Z,99359.94
2022-11-04T03:50:43.054Z,99358.63
2022-11-04T03:53:12.380Z,99353.41
2022-11-04T03:55:53.890Z,99340.03
2022-11-04T03:58:38.078Z,99331.72
2022-11-04T04:01:23.910Z,99321.53
2022-11-04T04:03:58.441Z,99316.88
2022-11-04T04:06:29.805Z,99307.56
2022-11-04T04:09:03.206Z,99302.59
2022-11-04T04:11:36.619Z,99303.84
2022-11-04T04:14:05.897Z,99298.25
2022-11-04T04:16:45.517Z,99300.37
2022-11-04T04:19:21.324Z,99302.13
2022-11-04T04:21:54.009Z,99302.06
2022-11-04T04:24:42.307Z,99301.97
2022-11-04T04:27:28.863Z,99303.31
2022-11-04T04:29:57.543Z,99293.78
2022-11-04T04:32:25.976Z,99295.25
2022-11-04T04:35:16.054Z,99302.25
2022-11-04T04:37:44.667Z,99302.59
2022-11-04T04:40:34.755Z,99301.41
2022-11-04T04:43:22.295Z,99296.53
2022-11-04T04:45:51.760Z,99295.88
2022-11-04T04:48:19.706Z,99289.75
2022-11-04T04:50:49.086Z,99284.59
2022-11-04T04:53:16.555Z,99282.13
2022-11-04T04:55:44.130Z,99275.78
2022-11-04T04:58:11.453Z,99284.94
2022-11-04T05:00:38.788Z,99284.91
2022-11-04T05:03:06.693Z,99288.88
2022-11-04T05:05:34.246Z,99291.91
2022-11-04T05:08:06.896Z,99288.69
2022-11-04T05:10:34.992Z,99280.62
2022-11-04T05:13:21.606Z,99276.16
2022-11-04T05:15:49.223Z,99283.56
2022-11-04T05:18:17.272Z,99271.34
2022-11-04T05:20:44.706Z,99280.31
2022-11-04T05:23:13.548Z,99280.81
2022-11-04T05:25:41.854Z,99291.25
2022-11-04T05:28:09.751Z,99284.78
2022-11-04T05:30:38.436Z,99283.97
2022-11-04T05:33:05.787Z,99281.84
2022-11-04T05:35:33.627Z,99270.88
2022-11-04T05:38:01.266Z,99272.28
2022-11-04T05:40:28.612Z,99274.03
2022-11-04T05:42:58.705Z,99280.31
2022-11-04T05:45:27.227Z,99302.31
2022-11-04T05:48:01.797Z,99307.97
2022-11-04T05:50:30.455Z,99296.97
2022-11-04T05:53:01.239Z,99307.34
2022-11-04T05:55:28.890Z,99293.88
2022-11-04T05:57:58.079Z,99291.13
2022-11-04T06:00:26.729Z,99294.41
2022-11-04T06:02:57.344Z,99293.72
2022-11-04T06:05:25.870Z,99290.34
2022-11-04T06:07:53.691Z,99288.88
2022-11-04T06:10:21.542Z,99290.19
2022-11-04T06:12:49.014Z,99294.63
2022-11-04T06:15:16.479Z,99289.50
2022-11-04T06:17:44.068Z,99285.53
2022-11-04T06:20:11.547Z,99282.78
2022-11-04T06:22:38.877Z,99272.25
2022-11-04T06:25:06.653Z,99282.69
2022-11-04T06:27:33.993Z,99283.69
2022-11-04T06:30:01.348Z,99288.84
2022-11-04T06:32:28.937Z,99291.91
2022-11-04T06:34:56.453Z,99292.69
2022-11-04T06:37:23.818Z,99296.34
2022-11-04T06:39:51.680Z,99298.25
2022-11-04T06:42:19.071Z,99299.63
2022-11-04T06:44:46.401Z,99304.31
2022-11-04T06:47:14.013Z,99301.09
2022-11-04T06:49:41.351Z,99297.13
2022-11-04T06:52:08.670Z,99304.41
2022-11-04T06:54:36.248Z,99294.25
2022-11-04T06:57:03.699Z,99300.78
2022-11-04T06:59:31.053Z,99300.84
2022-11-04T07:01:58.792Z,99302.41
2022-11-04T07:04:26.156Z,99299.50
2022-11-04T07:06:53.473Z,99300.06
2022-11-04T07:09:21.069Z,99303.75
2022-11-04T07:11:48.411Z,99306.38
2022-11-04T07:14:15.831Z,99292.31
2022-11-04T07:16:43.440Z,99292.50
2022-11-04T07:19:10.755Z,99294.75
2022-11-04T07:21:38.094Z,99294.56
2022-11-04T07:24:06.317Z,99301.00
2022-11-04T07:26:33.662Z,99301.66
2022-11-04T07:29:01.107Z,99299.41
2022-11-04T07:31:28.741Z,99303.31
2022-11-04T07:33:56.132Z,99300.28
2022-11-04T07:36:23.592Z,99305.66
2022-11-04T07:38:51.173Z,99306.87
2022-11-04T07:41:18.582Z,99307.09
2022-11-04T07:43:50.942Z,99296.59
2022-11-04T07:46:19.498Z,99291.97
2022-11-04T07:48:47.243Z,99296.06
2022-11-04T07:51:16.485Z,99296.56
2022-11-04T07:53:44.390Z,99282.31
2022-11-04T07:56:12.760Z,99280.16
2022-11-04T07:58:40.791Z,99279.91
2022-11-04T08:01:14.678Z,99279.97
2022-11-04T08:03:42.601Z,99283.47
2022-11-04T08:06:11.336Z,99277.75
2022-11-04T08:08:38.767Z,99269.06
2022-11-04T08:11:18.228Z,99270.44
2022-11-04T08:13:46.557Z,99278.53
2022-11-04T08:16:16.605Z,99274.03
2022-11-04T08:18:44.629Z,99261.03
2022-11-04T08:21:12.573Z,99270.41
2022-11-04T08:23:40.617Z,99266.09
2022-11-04T08:26:14.014Z,99271.47
2022-11-04T08:28:41.797Z,99267.72
2022-11-04T08:31:18.787Z,99260.50
2022-11-04T08:33:46.659Z,99253.63
2022-11-04T08:36:26.147Z,99250.47
2022-11-04T08:38:54.349Z,99261.13
2022-11-04T08:41:29.210Z,99256.66
2022-11-04T08:44:00.115Z,99248.38
2022-11-04T08:46:29.318Z,99250.38
2022-11-04T08:48:56.958Z,99248.75
2022-11-04T08:51:26.000Z,99249.69
2022-11-04T08:53:53.534Z,99237.03
2022-11-04T08:56:30.055Z,99234.38
2022-11-04T08:58:58.924Z,99230.63
2022-11-04T09:01:30.048Z,99234.25
2022-11-04T09:04:02.393Z,99231.47
2022-11-04T09:06:34.491Z,99221.59
2022-11-04T09:09:04.489Z,99221.34
2022-11-04T09:11:35.154Z,99217.56
2022-11-04T09:14:02.765Z,99221.31
2022-11-04T09:16:31.184Z,99223.06
2022-11-04T09:18:59.540Z,99224.75
2022-11-04T09:21:27.478Z,99225.16
2022-11-04T09:23:55.131Z,99218.28
2022-11-04T09:26:24.387Z,99221.53
2022-11-04T09:28:58.172Z,99220.81
2022-11-04T09:31:27.858Z,99223.06
2022-11-04T09:33:55.629Z,99208.56
2022-11-04T09:36:23.743Z,99198.13
2022-11-04T09:38:51.613Z,99198.13
2022-11-04T09:41:21.711Z,99194.38
2022-11-04T09:43:51.892Z,99198.63
2022-11-04T09:46:19.926Z,99192.28
2022-11-04T09:48:52.179Z,99190.50
2022-11-04T09:51:47.813Z,99188.56
2022-11-04T09:54:21.657Z,99167.63
2022-11-04T09:56:51.281Z,99169.59
2022-11-04T09:59:24.390Z,99161.09
2022-11-04T10:02:21.838Z,99153.31
2022-11-04T10:05:02.386Z,99142.34
2022-11-04T10:07:47.784Z,99143.06
2022-11-04T10:10:29.736Z,99138.31
2022-11-04T10:13:15.188Z,99137.84
2022-11-04T10:16:13.855Z,99139.63
2022-11-04T10:18:47.444Z,99148.44
2022-11-04T10:21:43.979Z,99142.16
2022-11-04T10:24:33.188Z,99131.13
2022-11-04T10:27:04.627Z,99141.31
2022-11-04T10:29:40.452Z,99134.69
2022-11-04T10:32:21.001Z,99134.81
2022-11-04T10:34:55.091Z,99140.88
2022-11-04T10:37:24.553Z,99140.22
2022-11-04T10:39:53.876Z,99124.63
2022-11-04T10:42:24.452Z,99117.22
2022-11-04T10:44:52.526Z,99106.38
2022-11-04T10:47:22.516Z,99095.03
2022-11-04T10:50:26.369Z,99100.09
2022-11-04T10:52:42.604Z,99103.31
2022-11-04T10:55:29.904Z,99102.44
2022-11-04T10:57:58.551Z,99108.72
2022-11-04T11:00:37.325Z,99099.13
2022-11-04T11:03:24.499Z,99095.75
2022-11-04T11:05:53.056Z,99096.03
2022-11-04T11:08:32.870Z,99094.87
2022-11-04T11:11:00.238Z,99098.88
2022-11-04T11:13:34.726Z,99098.56
2022-11-04T11:16:27.798Z,99106.66
2022-11-04T11:19:31.604Z,99106.78
2022-11-04T11:21:59.148Z,99103.13
2022-11-04T11:24:30.708Z,99091.59
2022-11-04T11:27:04.048Z,99097.28
2022-11-04T11:29:40.283Z,99091.88
2022-11-04T11:32:43.299Z,99083.72
2022-11-04T11:35:17.906Z,99084.31
2022-11-04T11:37:48.933Z,99080.16
2022-11-04T11:41:03.496Z,99074.53
2022-11-04T11:43:32.577Z,99078.97
2022-11-04T11:46:01.125Z,99069.91
2022-11-04T11:48:35.484Z,99057.28
2022-11-04T11:51:03.227Z,99060.09
2022-11-04T11:53:30.623Z,99060.66
2022-11-04T11:56:36.227Z,99053.97
2022-11-04T12:02:56.054Z,99033.50
2022-11-04T12:11:55.710Z,99014.16
2022-11-04T12:14:44.831Z,99011.47
2022-11-04T12:17:48.867Z,99008.78
2022-11-04T12:20:26.302Z,98996.34
2022-11-04T12:23:06.153Z,98990.97
2022-11-04T12:25:40.372Z,98985.00
2022-11-04T12:28:27.538Z,98983.84
2022-11-04T12:31:19.020Z,98977.16
2022-11-04T12:34:05.087Z,98964.37
2022-11-04T12:37:06.698Z,98956.25
2022-11-04T12:39:43.499Z,98962.19
2022-11-04T12:42:46.786Z,98959.47
2022-11-04T12:45:25.835Z,98958.13
2022-11-04T12:47:55.527Z,98955.72
2022-11-04T12:50:27.375Z,98962.69
2022-11-04T12:53:35.446Z,98954.59
2022-11-04T12:56:18.304Z,98950.81
2022-11-04T12:59:04.019Z,98939.66
2022-11-04T13:01:39.478Z,98946.94
2022-11-04T13:04:14.168Z,98945.34
2022-11-04T13:06:49.358Z,98932.31
2022-11-04T13:09:55.402Z,98931.22
2022-11-04T13:12:41.298Z,98925.87
2022-11-04T13:15:22.383Z,98930.75
2022-11-04T13:17:54.128Z,98925.03
2022-11-04T13:20:26.653Z,98929.06
2022-11-04T13:23:02.989Z,98918.25
2022-11-04T13:25:39.613Z,98918.22
2022-11-04T13:28:19.765Z,98901.97
2022-11-04T13:30:55.079Z,98914.44
2022-11-04T13:33:48.598Z,98919.06
2022-11-04T13:36:33.517Z,98915.78
2022-11-04T13:39:19.990Z,98917.69
2022-11-04T13:41:47.098Z,98918.41
2022-11-04T13:44:26.660Z,98912.50
2022-11-04T13:46:57.621Z,98914.69
2022-11-04T13:49:32.341Z,98919.31
2022-11-04T13:52:11.385Z,98924.19
2022-11-04T13:54:42.546Z,98920.13
2022-11-04T13:57:25.858Z,98924.97
2022-11-04T14:00:13.011Z,98916.22
2022-11-04T14:02:43.752Z,98915.88
2022-11-04T14:05:34.622Z,98914.81
2022-11-04T14:08:02.251Z,98921.75
2022-11-04T14:10:45.176Z,98914.41
2022-11-04T14:13:28.296Z,98900.81
2022-11-04T14:16:18.821Z,98900.47
2022-11-04T14:18:48.322Z,98890.78
2022-11-04T14:21:17.594Z,98891.78
2022-11-04T14:24:00.447Z,98877.19
2022-11-04T14:26:48.973Z,98872.22
2022-11-04T14:29:23.207Z,98879.87
2022-11-04T14:31:55.656Z,98895.37
2022-11-04T14:34:26.613Z,98895.41
2022-11-04T14:37:02.244Z,98898.00
2022-11-04T14:39:34.327Z,98887.47
2022-11-04T14:42:04.689Z,98886.56
2022-11-04T14:44:50.521Z,98876.28
2022-11-04T14:47:19.505Z,98875.19
2022-11-04T14:50:01.874Z,98869.81
2022-11-04T14:53:10.872Z,98868.22
2022-11-04T14:55:38.444Z,98870.41
2022-11-04T14:58:29.784Z,98874.94
2022-11-04T15:01:01.491Z,98869.06
2022-11-04T15:06:34.781Z,98865.09
2022-11-04T15:09:28.495Z,98871.97
2022-11-04T15:12:32.119Z,98860.50
2022-11-04T15:15:00.087Z,98867.31
2022-11-04T15:17:30.199Z,98861.25
2022-11-04T15:20:00.370Z,98863.97
2022-11-04T15:22:30.516Z,98861.06
2022-11-04T15:25:03.483Z,98855.06
2022-11-04T15:27:31.633Z,98858.25
2022-11-04T15:30:02.182Z,98851.19
2022-11-04T15:32:30.860Z,98853.62
2022-11-04T15:34:59.696Z,98844.56
2022-11-04T15:37:28.955Z,98849.34
2022-11-04T15:39:57.989Z,98848.81
2022-11-04T15:42:44.814Z,98843.91
2022-11-04T15:45:27.780Z,98846.34
2022-11-04T15:48:23.331Z,98858.00
2022-11-04T15:51:01.932Z,98857.56
2022-11-04T15:53:29.553Z,98857.53
2022-11-04T15:55:56.970Z,98866.75
2022-11-04T15:58:25.848Z,98867.44
2022-11-04T16:00:55.300Z,98868.88
2022-11-04T16:03:24.309Z,98867.34
2022-11-04T16:06:06.391Z,98867.34
2022-11-04T16:08:34.636Z,98871.16
2022-11-04T16:11:28.498Z,98872.34
2022-11-04T16:14:15.140Z,98875.06
2022-11-04T16:16:48.996Z,98863.72
2022-11-04T16:19:23.146Z,98864.16
2022-11-04T16:22:31.333Z,98871.03
2022-11-04T16:25:01.775Z,98864.81
2022-11-04T16:27:31.249Z,98862.22
2022-11-04T16:30:16.587Z,98866.09
2022-11-04T16:32:45.319Z,98871.66
2022-11-04T16:35:17.595Z,98878.59
2022-11-04T16:37:45.620Z,98865.69
2022-11-04T16:40:13.721Z,98868.16
2022-11-04T16:42:41.715Z,98868.69
2022-11-04T16:45:18.484Z,98870.22
2022-11-04T16:47:46.153Z,98868.69
2022-11-04T16:50:15.827Z,98869.22
2022-11-04T16:52:44.811Z,98863.84
2022-11-04T16:55:13.913Z,98850.50
2022-11-04T16:57:42.798Z,98849.44
2022-11-04T17:00:18.352Z,98846.59
2022-11-04T17:02:46.770Z,98842.47
2022-11-04T17:05:15.098Z,98844.75
2022-11-04T17:08:04.363Z,98844.63
2022-11-04T17:10:30.652Z,98851.34
2022-11-04T17:12:58.151Z,98848.72
2022-11-04T17:15:26.175Z,98862.03
2022-11-04T17:17:53.906Z,98862.22
2022-11-04T17:20:21.805Z,98863.41
2022-11-04T17:22:49.793Z,98862.66
2022-11-04T17:25:23.219Z,98861.16
2022-11-04T17:27:51.131Z,98869.09
2022-11-04T17:30:20.154Z,98852.94
2022-11-04T17:32:48.526Z,98862.94
2022-11-04T17:35:17.555Z,98851.94
2022-11-04T17:37:45.827Z,98855.28
2022-11-04T17:40:18.672Z,98849.81
2022-11-04T17:43:11.581Z,98849.16
2022-11-04T17:45:41.810Z,98858.97
2022-11-04T17:48:10.614Z,98855.53
2022-11-04T17:50:39.709Z,98851.94
2022-11-04T17:53:07.552Z,98862.22
2022-11-04T17:55:41.381Z,98856.41
2022-11-04T17:58:08.980Z,98851.78
2022-11-04T18:00:36.701Z,98845.34
2022-11-04T18:03:04.413Z,98850.53
2022-11-04T18:05:31.750Z,98853.38
2022-11-04T18:07:59.148Z,98851.06
2022-11-04T18:10:27.135Z,98851.94
2022-11-04T18:12:54.784Z,98852.91
2022-11-04T18:15:22.277Z,98847.41
2022-11-04T18:17:51.205Z,98847.91
2022-11-04T18:20:19.187Z,98843.56
2022-11-04T18:22:46.703Z,98846.09
2022-11-04T18:25:14.831Z,98855.09
2022-11-04T18:27:42.763Z,98872.00
2022-11-04T18:30:11.340Z,98868.09
2022-11-04T18:32:39.331Z,98868.94
2022-11-04T18:35:08.467Z,98873.53
2022-11-04T18:37:37.116Z,98893.56
2022-11-04T18:40:05.663Z,98912.81
2022-11-04T18:42:34.079Z,98938.53
2022-11-04T18:45:02.497Z,98950.34
2022-11-04T18:47:31.265Z,98934.63
2022-11-04T18:49:59.267Z,98941.56
2022-11-04T18:52:26.850Z,98933.59
2022-11-04T18:54:54.978Z,98928.50
2022-11-04T18:57:22.657Z,98927.94
2022-11-04T18:59:50.596Z,98925.09
2022-11-04T19:02:21.459Z,98930.31
2022-11-04T19:04:50.675Z,98922.22
2022-11-04T19:07:19.410Z,98922.66
2022-11-04T19:09:48.426Z,98922.34
2022-11-04T19:12:35.149Z,98918.75
2022-11-04T19:15:07.676Z,98906.25
2022-11-04T19:17:38.581Z,98916.94
2022-11-04T19:20:12.282Z,98923.75
2022-11-04T19:22:41.155Z,98920.47
2022-11-04T19:25:10.249Z,98914.00
2022-11-04T19:27:38.078Z,98913.47
2022-11-04T19:30:06.721Z,98911.13
2022-11-04T19:32:34.989Z,98916.53
2022-11-04T19:35:03.008Z,98907.28
2022-11-04T19:37:32.781Z,98913.53
2022-11-04T19:40:02.155Z,98911.56
2022-11-04T19:42:48.524Z,98912.28
2022-11-04T19:45:16.826Z,98900.38
2022-11-04T19:47:45.337Z,98903.44
2022-11-04T19:50:15.082Z,98899.62
2022-11-04T19:52:43.896Z,98894.09
2022-11-04T19:55:12.164Z,98903.87
2022-11-04T19:57:40.232Z,98897.31
2022-11-04T20:00:09.291Z,98904.75
2022-11-04T20:02:39.538Z,98905.81
2022-11-04T20:05:08.031Z,98910.37
2022-11-04T20:07:35.754Z,98916.59
2022-11-04T20:10:03.815Z,98920.59
2022-11-04T20:13:10.304Z,98910.97
2022-11-04T20:15:38.387Z,98919.13
2022-11-04T20:18:06.608Z,98917.13
2022-11-04T20:20:34.178Z,98921.09
2022-11-04T20:23:01.957Z,98918.28
2022-11-04T20:25:29.997Z,98925.34
2022-11-04T20:27:57.596Z,98929.00
2022-11-04T20:30:25.533Z,98923.03
2022-11-04T20:32:54.152Z,98924.91
2022-11-04T20:35:22.262Z,98925.91
2022-11-04T20:37:50.666Z,98927.00
2022-11-04T20:40:19.320Z,98922.56
2022-11-04T20:42:50.133Z,98927.06
2022-11-04T20:45:19.629Z,98936.06
2022-11-04T20:47:47.895Z,98933.97
2022-11-04T20:50:15.588Z,98940.06
2022-11-04T20:52:43.635Z,98938.41
2022-11-04T20:55:12.261Z,98942.09
2022-11-04T20:57:39.838Z,98963.63
2022-11-04T21:00:09.281Z,98964.25
2022-11-04T21:02:37.305Z,98973.53
2022-11-04T21:05:05.244Z,98961.53
2022-11-04T21:07:33.325Z,98967.19
2022-11-04T21:10:00.910Z,98983.69
2022-11-04T21:12:28.360Z,98993.06
2022-11-04T21:14:55.976Z,98998.06
2022-11-04T21:17:23.893Z,98999.38
2022-11-04T21:19:51.607Z,98991.00
2022-11-04T21:22:19.592Z,98984.81
2022-11-04T21:24:50.656Z,98994.84
2022-11-04T21:27:18.086Z,98991.69
2022-11-04T21:29:46.189Z,99004.91
2022-11-04T21:32:13.604Z,99013.53
2022-11-04T21:34:40.943Z,99006.75
2022-11-04T21:37:08.584Z,99009.69
2022-11-04T21:39:36.023Z,99008.34
2022-11-04T21:42:03.366Z,99009.44
2022-11-04T21:44:31.314Z,99004.00
2022-11-04T21:46:58.796Z,99015.59
2022-11-04T21:49:26.478Z,99009.50
2022-11-04T21:51:54.209Z,99012.44
2022-11-04T21:54:21.550Z,99014.53
2022-11-04T21:56:50.349Z,99017.50
2022-11-04T21:59:18.609Z,99009.44
2022-11-04T22:01:47.028Z,99015.38
2022-11-04T22:04:15.147Z,99019.19
2022-11-04T22:06:42.530Z,99018.69
2022-11-04T22:09:09.900Z,99029.00
2022-11-04T22:11:39.498Z,99025.22
2022-11-04T22:14:08.420Z,99031.19
2022-11-04T22:16:38.624Z,99035.44
2022-11-04T22:19:08.508Z,99028.69
2022-11-04T22:21:38.489Z,99024.56
2022-11-04T22:24:06.368Z,99014.47
2022-11-04T22:26:33.716Z,99029.78
2022-11-04T22:29:01.048Z,99020.13
2022-11-04T22:31:31.045Z,99020.31
2022-11-04T22:33:59.798Z,99022.97
2022-11-04T22:36:28.144Z,99011.03
2022-11-04T22:38:56.290Z,99018.56
2022-11-04T22:41:26.184Z,99025.56
2022-11-04T22:43:53.529Z,99042.53
2022-11-04T22:46:25.382Z,99041.78
2022-11-04T22:48:52.998Z,99045.19
2022-11-04T22:51:20.959Z,99038.09
2022-11-04T22:53:56.631Z,99040.06
2022-11-04T22:56:25.697Z,99041.50
2022-11-04T22:58:54.379Z,99034.97
2022-11-04T23:01:22.609Z,99037.09
2022-11-04T23:03:51.783Z,99036.56
2022-11-04T23:06:19.650Z,99027.09
2022-11-04T23:08:47.016Z,99037.81
